createdAt,value
2023-04-21T00:00:31.596Z,44.38
2023-04-21T00:02:59.640Z,44.17
2023-04-21T00:05:27.870Z,44.14
2023-04-21T00:07:55.859Z,44.36
2023-04-21T00:10:25.175Z,44.36
2023-04-21T00:12:53.049Z,44.24
2023-04-21T00:15:20.900Z,44.33
2023-04-21T00:17:48.859Z,44.35
2023-04-21T00:20:16.742Z,44.31
2023-04-21T00:22:44.681Z,44.56
2023-04-21T00:25:12.567Z,44.47
2023-04-21T00:27:41.856Z,44.36
2023-04-21T00:30:10.770Z,44.43
2023-04-21T00:32:38.712Z,44.54
2023-04-21T00:35:07.141Z,44.61
2023-04-21T00:37:35.118Z,44.76
2023-04-21T00:40:04.230Z,45.08
2023-04-21T00:42:32.119Z,45.44
2023-04-21T00:45:01.351Z,45.70
2023-04-21T00:47:29.268Z,45.80
2023-04-21T00:49:57.156Z,45.76
2023-04-21T00:52:25.051Z,46.08
2023-04-21T00:54:52.934Z,46.17
2023-04-21T00:57:20.856Z,46.39
2023-04-21T00:59:49.820Z,46.57
2023-04-21T01:02:19.451Z,46.65
2023-04-21T01:04:47.436Z,46.80
2023-04-21T01:07:15.342Z,46.86
2023-04-21T01:09:43.210Z,47.17
2023-04-21T01:12:11.882Z,46.93
2023-04-21T01:14:40.437Z,47.30
2023-04-21T01:17:08.769Z,47.15
2023-04-21T01:19:40.438Z,47.22
2023-04-21T01:22:11.234Z,47.36
2023-04-21T01:24:39.580Z,47.36
2023-04-21T01:27:10.320Z,47.26
2023-04-21T01:29:38.383Z,47.33
2023-04-21T01:32:07.812Z,47.27
2023-04-21T01:34:35.756Z,47.38
2023-04-21T01:37:03.713Z,47.43
2023-04-21T01:39:32.915Z,47.47
2023-04-21T01:42:00.831Z,47.23
2023-04-21T01:44:28.723Z,47.20
2023-04-21T01:46:56.640Z,47.01
2023-04-21T01:49:24.571Z,46.91
2023-04-21T01:51:52.509Z,46.82
2023-04-21T01:54:20.382Z,46.74
2023-04-21T01:56:49.698Z,46.53
2023-04-21T01:59:18.178Z,46.59
2023-04-21T02:01:46.436Z,46.42
2023-04-21T02:04:14.396Z,46.30
2023-04-21T02:06:42.433Z,46.35
2023-04-21T02:09:10.340Z,46.40
2023-04-21T02:11:38.306Z,46.48
2023-04-21T02:14:07.892Z,46.40
2023-04-21T02:16:35.885Z,46.45
2023-04-21T02:19:04.317Z,46.52
2023-04-21T02:21:32.413Z,46.22
2023-04-21T02:24:00.282Z,46.25
2023-04-21T02:26:28.128Z,46.29
2023-04-21T02:28:55.984Z,46.14
2023-04-21T02:31:25.313Z,46.05
2023-04-21T02:33:54.618Z,46.01
2023-04-21T02:36:22.481Z,46.07
2023-04-21T02:38:51.185Z,46.18
2023-04-21T02:41:19.070Z,46.21
2023-04-21T02:43:46.963Z,46.37
2023-04-21T02:46:14.862Z,46.31
2023-04-21T02:48:44.253Z,46.28
2023-04-21T02:51:15.632Z,46.21
2023-04-21T02:53:43.548Z,46.16
2023-04-21T02:56:11.398Z,46.16
2023-04-21T02:58:39.322Z,46.20
2023-04-21T03:01:07.255Z,46.09
2023-04-21T03:03:36.201Z,46.13
2023-04-21T03:06:06.198Z,46.32
2023-04-21T03:08:34.070Z,46.17
2023-04-21T03:11:02.655Z,46.34
2023-04-21T03:13:30.604Z,46.26
2023-04-21T03:15:58.480Z,46.29
2023-04-21T03:18:26.348Z,46.24
2023-04-21T03:20:54.474Z,46.39
2023-04-21T03:23:23.704Z,46.21
2023-04-21T03:25:51.603Z,46.27
2023-04-21T03:28:19.506Z,46.17
2023-04-21T03:30:47.383Z,46.32
2023-04-21T03:33:15.262Z,46.24
2023-04-21T03:35:43.170Z,46.36
2023-04-21T03:38:11.043Z,46.22
2023-04-21T03:40:40.282Z,46.33
2023-04-21T03:43:08.188Z,46.37
2023-04-21T03:45:36.373Z,46.38
2023-04-21T03:48:04.813Z,46.49
2023-04-21T03:50:32.738Z,46.36
2023-04-21T03:53:00.571Z,46.34
2023-04-21T03:55:28.466Z,46.33
2023-04-21T03:57:57.807Z,46.29
2023-04-21T04:00:25.826Z,46.20
2023-04-21T04:02:53.834Z,46.20
2023-04-21T04:05:21.794Z,46.23
2023-04-21T04:07:49.683Z,46.23
2023-04-21T04:10:17.603Z,46.24
2023-04-21T04:12:45.505Z,46.48
2023-04-21T04:15:14.965Z,46.44
2023-04-21T04:17:42.999Z,46.38
2023-04-21T04:20:11.014Z,46.70
2023-04-21T04:22:38.965Z,47.01
2023-04-21T04:25:07.403Z,47.50
2023-04-21T04:27:35.443Z,47.98
2023-04-21T04:30:03.496Z,47.95
2023-04-21T04:32:33.587Z,48.00
2023-04-21T04:35:01.522Z,48.00
2023-04-21T04:37:29.504Z,48.12
2023-04-21T04:39:57.885Z,47.95
2023-04-21T04:42:26.319Z,47.92
2023-04-21T04:44:54.537Z,47.79
2023-04-21T04:47:22.496Z,47.99
2023-04-21T04:49:51.796Z,47.90
2023-04-21T04:52:19.736Z,48.02
2023-04-21T04:54:47.596Z,48.29
2023-04-21T04:57:15.747Z,48.32
2023-04-21T04:59:43.628Z,48.57
2023-04-21T05:02:11.801Z,48.63
2023-04-21T05:04:40.384Z,48.90
2023-04-21T05:07:09.704Z,48.89
2023-04-21T05:09:37.817Z,49.01
2023-04-21T05:12:06.340Z,49.08
2023-04-21T05:14:34.274Z,49.05
2023-04-21T05:17:02.273Z,49.18
2023-04-21T05:19:30.195Z,49.07
2023-04-21T05:22:01.070Z,49.07
2023-04-21T05:24:30.338Z,48.98
2023-04-21T05:26:58.178Z,49.12
2023-04-21T05:29:26.158Z,49.20
2023-04-21T05:31:54.128Z,49.21
2023-04-21T05:34:22.181Z,49.29
2023-04-21T05:36:50.141Z,49.60
2023-04-21T05:39:18.792Z,49.47
2023-04-21T05:41:48.037Z,49.53
2023-04-21T05:44:18.037Z,49.70
2023-04-21T05:46:46.041Z,49.74
2023-04-21T05:49:13.931Z,49.74
2023-04-21T05:51:41.808Z,49.65
2023-04-21T05:54:09.714Z,49.63
2023-04-21T05:56:37.612Z,49.56
2023-04-21T05:59:07.152Z,49.63
2023-04-21T06:01:35.085Z,49.63
2023-04-21T06:04:03.286Z,49.57
2023-04-21T06:06:31.833Z,49.45
2023-04-21T06:08:59.723Z,49.05
2023-04-21T06:11:27.619Z,49.43
2023-04-21T06:13:58.446Z,49.51
2023-04-21T06:16:27.937Z,49.48
2023-04-21T06:18:55.867Z,49.62
2023-04-21T06:21:23.767Z,49.81
2023-04-21T06:23:51.704Z,49.98
2023-04-21T06:26:19.690Z,49.99
2023-04-21T06:28:47.675Z,50.08
2023-04-21T06:31:16.116Z,50.17
2023-04-21T06:33:45.438Z,50.18
2023-04-21T06:36:13.347Z,50.11
2023-04-21T06:38:43.296Z,49.94
2023-04-21T06:41:11.217Z,50.17
2023-04-21T06:43:39.224Z,50.22
2023-04-21T06:46:07.239Z,50.29
2023-04-21T06:48:35.293Z,50.22
2023-04-21T06:51:04.623Z,50.28
2023-04-21T06:53:32.999Z,50.28
2023-04-21T06:56:00.984Z,50.31
2023-04-21T06:58:28.940Z,50.48
2023-04-21T07:00:57.124Z,50.40
2023-04-21T07:03:25.245Z,50.47
2023-04-21T07:05:53.339Z,50.43
2023-04-21T07:08:22.648Z,50.46
2023-04-21T07:10:51.357Z,50.46
2023-04-21T07:13:19.288Z,50.41
2023-04-21T07:15:47.368Z,50.52
2023-04-21T07:18:15.600Z,50.46
2023-04-21T07:20:43.663Z,50.57
2023-04-21T07:23:11.660Z,50.33
2023-04-21T07:25:41.397Z,50.24
2023-04-21T07:28:09.354Z,50.29
2023-04-21T07:30:39.977Z,50.14
2023-04-21T07:33:08.518Z,50.20
2023-04-21T07:35:36.893Z,50.01
2023-04-21T07:38:04.844Z,49.76
2023-04-21T07:40:33.884Z,49.73
2023-04-21T07:43:03.465Z,49.71
2023-04-21T07:45:31.562Z,49.59
2023-04-21T07:47:59.985Z,49.63
2023-04-21T07:50:28.025Z,49.43
2023-04-21T07:52:56.070Z,49.08
2023-04-21T07:55:24.032Z,48.89
2023-04-21T07:57:52.433Z,49.00
2023-04-21T08:00:22.188Z,49.00
2023-04-21T08:02:50.497Z,48.81
2023-04-21T08:05:18.693Z,48.66
2023-04-21T08:07:46.769Z,48.32
2023-04-21T08:10:14.889Z,48.24
2023-04-21T08:12:42.793Z,48.06
2023-04-21T08:15:12.633Z,47.51
2023-04-21T08:17:45.527Z,47.23
2023-04-21T08:20:14.136Z,46.55
2023-04-21T08:22:46.651Z,46.46
2023-04-21T08:25:16.078Z,46.24
2023-04-21T08:27:44.747Z,46.34
2023-04-21T08:30:15.461Z,46.05
2023-04-21T08:32:44.851Z,45.81
2023-04-21T08:35:12.823Z,45.57
2023-04-21T08:37:40.995Z,45.57
2023-04-21T08:40:09.874Z,45.31
2023-04-21T08:42:38.166Z,45.68
2023-04-21T08:45:07.230Z,45.69
2023-04-21T08:47:36.080Z,45.30
2023-04-21T08:50:06.053Z,45.44
2023-04-21T08:52:34.101Z,45.33
2023-04-21T08:55:02.069Z,45.20
2023-04-21T08:57:29.973Z,45.22
2023-04-21T08:59:57.874Z,44.90
2023-04-21T09:02:26.408Z,44.75
2023-04-21T09:04:56.106Z,44.76
2023-04-21T09:07:36.042Z,44.44
2023-04-21T09:10:04.149Z,44.10
2023-04-21T09:12:32.059Z,43.97
2023-04-21T09:15:01.012Z,44.17
2023-04-21T09:17:33.495Z,44.15
2023-04-21T09:20:14.456Z,43.57
2023-04-21T09:22:43.814Z,43.33
2023-04-21T09:25:13.851Z,43.48
2023-04-21T09:27:42.044Z,43.40
2023-04-21T09:30:10.767Z,43.34
2023-04-21T09:32:39.238Z,43.02
2023-04-21T09:35:08.162Z,43.41
2023-04-21T09:37:36.671Z,43.30
2023-04-21T09:40:07.044Z,42.72
2023-04-21T09:42:39.184Z,41.99
2023-04-21T09:45:32.489Z,41.72
2023-04-21T09:47:58.601Z,41.27
2023-04-21T09:51:03.844Z,41.62
2023-04-21T09:53:16.585Z,41.26
2023-04-21T09:55:46.290Z,41.22
2023-04-21T09:58:15.475Z,41.19
2023-04-21T10:00:43.749Z,40.60
2023-04-21T10:03:12.772Z,40.44
2023-04-21T10:05:42.795Z,40.95
2023-04-21T10:08:12.371Z,40.36
2023-04-21T10:10:43.087Z,40.40
2023-04-21T10:13:18.602Z,40.03
2023-04-21T10:15:46.610Z,39.79
2023-04-21T10:18:18.645Z,39.14
2023-04-21T10:20:54.111Z,39.83
2023-04-21T10:23:31.933Z,40.17
2023-04-21T10:26:07.915Z,39.60
2023-04-21T10:28:48.077Z,39.24
2023-04-21T10:31:20.458Z,39.25
2023-04-21T10:34:13.803Z,39.10
2023-04-21T10:36:49.276Z,38.65
2023-04-21T10:39:26.866Z,38.64
2023-04-21T10:41:56.703Z,38.71
2023-04-21T10:44:26.055Z,38.68
2023-04-21T10:46:54.462Z,38.74
2023-04-21T10:49:23.397Z,38.93
2023-04-21T10:52:07.413Z,38.88
2023-04-21T10:54:42.748Z,38.33
2023-04-21T10:57:12.331Z,38.28
2023-04-21T10:59:41.891Z,37.64
2023-04-21T11:02:10.069Z,38.04
2023-04-21T11:04:40.507Z,37.32
2023-04-21T11:07:08.936Z,37.02
2023-04-21T11:09:37.557Z,36.09
2023-04-21T11:12:08.120Z,35.30
2023-04-21T11:14:37.146Z,34.57
2023-04-21T11:17:06.779Z,34.72
2023-04-21T11:19:34.736Z,34.55
2023-04-21T11:22:02.637Z,33.50
2023-04-21T11:24:30.578Z,32.73
2023-04-21T11:26:58.457Z,33.19
2023-04-21T11:29:26.346Z,33.08
2023-04-21T11:31:54.219Z,33.67
2023-04-21T11:34:25.114Z,34.13
2023-04-21T11:36:53.004Z,34.13
2023-04-21T11:39:22.330Z,34.22
2023-04-21T11:41:51.191Z,34.37
2023-04-21T11:44:32.274Z,34.57
2023-04-21T11:47:00.344Z,34.73
2023-04-21T11:49:30.602Z,34.67
2023-04-21T11:51:58.534Z,35.00
2023-04-21T11:54:26.466Z,35.12
2023-04-21T11:56:55.214Z,34.93
2023-04-21T11:59:25.676Z,34.95
2023-04-21T12:01:55.462Z,35.26
2023-04-21T12:04:24.327Z,35.47
2023-04-21T12:06:59.055Z,35.33
2023-04-21T12:09:27.128Z,35.55
2023-04-21T12:11:56.611Z,35.39
2023-04-21T12:14:25.210Z,35.86
2023-04-21T12:16:55.306Z,35.91
2023-04-21T12:19:23.722Z,35.35
2023-04-21T12:21:56.258Z,35.47
2023-04-21T12:24:26.097Z,35.75
2023-04-21T12:26:53.989Z,35.77
2023-04-21T12:29:24.965Z,35.58
2023-04-21T12:31:53.292Z,35.81
2023-04-21T12:34:21.240Z,36.07
2023-04-21T12:36:49.118Z,36.17
2023-04-21T12:39:17.429Z,36.19
2023-04-21T12:41:47.488Z,36.28
2023-04-21T12:44:16.073Z,36.06
2023-04-21T12:46:44.066Z,35.83
2023-04-21T12:49:11.934Z,35.94
2023-04-21T12:51:39.840Z,36.18
2023-04-21T12:54:08.970Z,36.43
2023-04-21T12:56:36.829Z,37.02
2023-04-21T12:59:06.126Z,37.61
2023-04-21T13:01:34.128Z,37.60
2023-04-21T13:04:02.449Z,36.93
2023-04-21T13:06:31.059Z,35.81
2023-04-21T13:08:58.929Z,34.49
2023-04-21T13:11:26.902Z,34.11
2023-04-21T13:13:54.833Z,34.18
2023-04-21T13:16:24.067Z,33.95
2023-04-21T13:18:51.926Z,33.96
2023-04-21T13:21:19.812Z,34.17
2023-04-21T13:23:47.837Z,34.44
2023-04-21T13:26:15.982Z,34.53
2023-04-21T13:28:43.967Z,34.80
2023-04-21T13:31:11.853Z,34.78
2023-04-21T13:33:41.185Z,35.01
2023-04-21T13:36:12.709Z,35.13
2023-04-21T13:38:41.422Z,35.28
2023-04-21T13:41:09.335Z,35.55
2023-04-21T13:43:37.488Z,35.47
2023-04-21T13:46:05.508Z,36.00
2023-04-21T13:48:33.386Z,35.75
2023-04-21T13:51:02.693Z,35.94
2023-04-21T13:53:31.300Z,36.10
2023-04-21T13:55:59.471Z,36.09
2023-04-21T13:58:27.830Z,36.44
2023-04-21T14:00:55.760Z,36.36
2023-04-21T14:03:24.095Z,36.88
2023-04-21T14:05:52.306Z,36.73
2023-04-21T14:08:22.114Z,37.02
2023-04-21T14:10:50.139Z,36.84
2023-04-21T14:15:51.841Z,37.15
2023-04-21T14:18:20.006Z,37.33
2023-04-21T14:20:48.163Z,37.52
2023-04-21T14:23:16.637Z,37.15
2023-04-21T14:25:46.046Z,37.61
2023-04-21T14:28:13.999Z,37.46
2023-04-21T14:30:43.022Z,37.42
2023-04-21T14:33:11.039Z,37.74
2023-04-21T14:35:39.068Z,37.59
2023-04-21T14:38:07.685Z,37.48
2023-04-21T14:40:35.566Z,37.56
2023-04-21T14:43:05.112Z,38.31
2023-04-21T14:45:33.086Z,38.88
2023-04-21T14:48:01.277Z,39.03
2023-04-21T14:50:29.332Z,39.22
2023-04-21T14:52:57.372Z,39.82
2023-04-21T14:55:25.447Z,40.06
2023-04-21T14:57:53.691Z,40.00
2023-04-21T15:00:24.246Z,40.66
2023-04-21T15:02:52.926Z,40.58
2023-04-21T15:05:21.552Z,41.23
2023-04-21T15:07:49.876Z,41.36
2023-04-21T15:10:17.965Z,41.49
2023-04-21T15:12:45.968Z,41.97
2023-04-21T15:15:14.528Z,42.24
2023-04-21T15:17:43.928Z,42.68
2023-04-21T15:20:12.560Z,42.67
2023-04-21T15:22:40.502Z,42.85
2023-04-21T15:25:08.904Z,43.07
2023-04-21T15:27:36.852Z,42.97
2023-04-21T15:30:05.210Z,43.32
2023-04-21T15:32:33.225Z,43.43
2023-04-21T15:35:02.632Z,43.57
2023-04-21T15:37:30.518Z,43.61
2023-04-21T15:39:58.673Z,43.66
2023-04-21T15:42:26.537Z,43.70
2023-04-21T15:44:55.891Z,43.24
2023-04-21T15:47:24.100Z,43.26
2023-04-21T15:49:52.250Z,43.05
2023-04-21T15:52:21.704Z,42.89
2023-04-21T15:54:49.622Z,42.97
2023-04-21T15:57:18.145Z,42.58
2023-04-21T15:59:46.088Z,42.61
2023-04-21T16:02:14.720Z,42.94
2023-04-21T16:04:43.471Z,42.54
2023-04-21T16:07:12.145Z,42.82
2023-04-21T16:09:41.826Z,43.06
2023-04-21T16:12:10.530Z,42.73
2023-04-21T16:14:53.525Z,43.01
2023-04-21T16:17:26.626Z,42.88
2023-04-21T16:19:54.859Z,42.98
2023-04-21T16:22:22.809Z,42.89
2023-04-21T16:24:53.264Z,42.75
2023-04-21T16:27:21.477Z,42.59
2023-04-21T16:29:50.277Z,42.39
2023-04-21T16:32:18.319Z,42.04
2023-04-21T16:34:46.548Z,42.05
2023-04-21T16:37:14.591Z,41.41
2023-04-21T16:39:42.751Z,41.58
2023-04-21T16:42:12.066Z,41.54
2023-04-21T16:44:40.317Z,41.26
2023-04-21T16:47:08.872Z,41.08
2023-04-21T16:49:37.051Z,41.22
2023-04-21T16:52:04.989Z,41.26
2023-04-21T16:54:32.999Z,41.47
2023-04-21T16:57:02.115Z,41.26
2023-04-21T16:59:33.018Z,41.02
2023-04-21T17:02:01.270Z,41.32
2023-04-21T17:04:29.303Z,41.46
2023-04-21T17:06:58.499Z,41.25
2023-04-21T17:09:26.610Z,41.59
2023-04-21T17:11:54.641Z,41.59
2023-04-21T17:14:22.594Z,41.90
2023-04-21T17:16:52.076Z,41.93
2023-04-21T17:19:20.566Z,42.03
2023-04-21T17:21:49.275Z,42.30
2023-04-21T17:24:17.208Z,42.58
2023-04-21T17:26:45.108Z,42.88
2023-04-21T17:29:12.971Z,43.07
2023-04-21T17:31:41.358Z,43.27
2023-04-21T17:34:10.731Z,43.58
2023-04-21T17:36:40.176Z,43.90
2023-04-21T17:39:08.383Z,44.58
2023-04-21T17:41:36.302Z,44.61
2023-04-21T17:44:04.396Z,45.09
2023-04-21T17:46:32.321Z,45.37
2023-04-21T17:49:00.611Z,45.37
2023-04-21T17:51:29.916Z,45.66
2023-04-21T17:53:57.807Z,45.78
2023-04-21T17:56:25.731Z,45.98
2023-04-21T17:58:53.600Z,45.99
2023-04-21T18:01:21.616Z,46.17
2023-04-21T18:03:49.594Z,46.18
2023-04-21T18:06:17.574Z,46.38
2023-04-21T18:08:46.818Z,46.37
2023-04-21T18:11:14.723Z,46.31
2023-04-21T18:13:42.662Z,46.53
2023-04-21T18:16:10.583Z,46.37
2023-04-21T18:18:38.712Z,46.52
2023-04-21T18:21:06.679Z,46.71
2023-04-21T18:23:34.790Z,46.85
2023-04-21T18:26:04.099Z,46.89
2023-04-21T18:28:32.031Z,46.87
2023-04-21T18:31:00.763Z,46.96
2023-04-21T18:33:28.859Z,47.00
2023-04-21T18:35:56.776Z,47.05
2023-04-21T18:38:24.684Z,47.07
2023-04-21T18:40:52.625Z,47.08
2023-04-21T18:43:22.343Z,46.99
2023-04-21T18:45:50.230Z,47.20
2023-04-21T18:48:18.130Z,47.20
2023-04-21T18:50:46.861Z,47.50
2023-04-21T18:53:14.812Z,47.37
2023-04-21T18:55:42.672Z,47.65
2023-04-21T18:58:10.890Z,47.67
2023-04-21T19:00:40.414Z,47.62
2023-04-21T19:03:08.486Z,47.73
2023-04-21T19:05:37.083Z,47.64
2023-04-21T19:08:05.429Z,47.86
2023-04-21T19:10:34.347Z,48.06
2023-04-21T19:13:02.282Z,48.03
2023-04-21T19:15:30.630Z,48.13
2023-04-21T19:18:00.055Z,48.17
2023-04-21T19:20:28.110Z,48.19
2023-04-21T19:22:56.054Z,48.23
2023-04-21T19:25:23.986Z,48.38
2023-04-21T19:27:51.946Z,48.40
2023-04-21T19:30:20.013Z,48.62
2023-04-21T19:32:47.971Z,48.66
2023-04-21T19:35:17.666Z,48.79
2023-04-21T19:37:45.599Z,48.64
2023-04-21T19:40:13.609Z,48.78
2023-04-21T19:42:41.953Z,48.74
2023-04-21T19:45:11.089Z,48.73
2023-04-21T19:47:39.029Z,48.92
2023-04-21T19:50:08.339Z,48.75
2023-04-21T19:52:37.611Z,48.88
2023-04-21T19:55:06.035Z,48.84
2023-04-21T19:57:34.025Z,49.06
2023-04-21T20:00:01.924Z,48.81
2023-04-21T20:02:29.962Z,48.98
2023-04-21T20:04:58.496Z,48.89
2023-04-21T20:07:26.656Z,49.14
2023-04-21T20:09:56.051Z,49.18
2023-04-21T20:12:23.970Z,49.53
2023-04-21T20:14:53.712Z,49.68
2023-04-21T20:17:21.667Z,49.99
2023-04-21T20:19:49.588Z,50.15
2023-04-21T20:22:17.508Z,50.17
2023-04-21T20:24:45.879Z,50.09
2023-04-21T20:27:15.129Z,50.50
2023-04-21T20:29:43.216Z,50.71
2023-04-21T20:32:11.870Z,50.54
2023-04-21T20:34:40.893Z,50.60
2023-04-21T20:37:10.711Z,50.80
2023-04-21T20:39:39.510Z,51.04
2023-04-21T20:42:13.126Z,51.24
2023-04-21T20:44:43.445Z,51.37
2023-04-21T20:47:11.596Z,51.42
2023-04-21T20:49:40.151Z,51.48
2023-04-21T20:52:08.260Z,51.61
2023-04-21T20:54:36.459Z,51.62
2023-04-21T20:57:04.314Z,51.73
2023-04-21T20:59:32.230Z,51.81
2023-04-21T21:02:01.706Z,51.88
2023-04-21T21:04:29.709Z,51.87
2023-04-21T21:06:57.576Z,51.98
2023-04-21T21:09:25.855Z,52.36
2023-04-21T21:11:53.870Z,52.40
2023-04-21T21:14:21.835Z,52.49
2023-04-21T21:16:49.853Z,52.45
2023-04-21T21:19:19.224Z,52.42
2023-04-21T21:21:47.159Z,52.58
2023-04-21T21:24:15.039Z,52.56
2023-04-21T21:26:42.990Z,52.23
2023-04-21T21:29:10.874Z,52.35
2023-04-21T21:31:38.743Z,52.26
2023-04-21T21:34:06.827Z,52.37
2023-04-21T21:36:36.162Z,52.25
2023-04-21T21:39:04.091Z,52.15
2023-04-21T21:41:31.957Z,52.21
2023-04-21T21:43:59.860Z,52.11
2023-04-21T21:46:27.725Z,52.06
2023-04-21T21:48:55.615Z,51.96
2023-04-21T21:51:23.547Z,52.00
2023-04-21T21:53:52.779Z,51.86
2023-04-21T21:56:21.383Z,51.94
2023-04-21T21:58:49.356Z,51.95
2023-04-21T22:01:18.277Z,51.96
2023-04-21T22:03:47.276Z,51.95
2023-04-21T22:06:17.209Z,51.84
2023-04-21T22:08:45.781Z,51.78
2023-04-21T22:11:15.113Z,51.87
2023-04-21T22:13:43.190Z,51.71
2023-04-21T22:16:11.081Z,51.83
2023-04-21T22:18:39.129Z,51.77
2023-04-21T22:21:07.165Z,51.81
2023-04-21T22:23:35.105Z,51.66
2023-04-21T22:26:02.947Z,51.84
2023-04-21T22:28:32.270Z,51.77
2023-04-21T22:31:00.184Z,51.78
2023-04-21T22:33:28.075Z,51.85
2023-04-21T22:35:56.255Z,51.80
2023-04-21T22:38:24.124Z,51.81
2023-04-21T22:40:52.018Z,51.86
2023-04-21T22:43:19.899Z,51.86
2023-04-21T22:45:49.173Z,51.79
2023-04-21T22:48:17.097Z,51.81
2023-04-21T22:50:44.992Z,51.70
2023-04-21T22:53:13.411Z,51.76
2023-04-21T22:55:41.355Z,51.80
2023-04-21T22:58:17.035Z,51.77
2023-04-21T23:00:45.011Z,51.79
2023-04-21T23:03:14.556Z,51.79
2023-04-21T23:05:42.547Z,51.82
2023-04-21T23:08:10.472Z,51.66
2023-04-21T23:10:38.442Z,51.58
2023-04-21T23:13:07.030Z,51.75
2023-04-21T23:15:34.975Z,51.75
2023-04-21T23:18:02.972Z,51.71
2023-04-21T23:20:32.627Z,51.65
2023-04-21T23:23:00.582Z,51.50
2023-04-21T23:25:28.473Z,51.64
2023-04-21T23:27:56.539Z,51.51
2023-04-21T23:30:24.400Z,51.63
2023-04-21T23:32:52.327Z,51.62
2023-04-21T23:35:20.322Z,51.76
2023-04-21T23:37:49.881Z,51.82
2023-04-21T23:40:17.841Z,51.88
2023-04-21T23:42:47.427Z,51.81
2023-04-21T23:45:15.799Z,51.84
2023-04-21T23:47:45.555Z,51.84
2023-04-21T23:50:13.916Z,51.76
2023-04-21T23:52:42.178Z,51.73
2023-04-21T23:55:12.228Z,51.74
2023-04-21T23:57:40.410Z,51.76
